ADDS METAR Data INFO
IDs: Format: Raw Decoded Include TAF

Data at: 2053 UTC 19 Jul 2018

KDYA 192035Z AUTO 36005KT 4SM -RA SCT017 BKN025 BKN060 27/23 A2991 RMK AO2 T02690231
KDYA 192015Z AUTO 30005KT 10SM BKN028 BKN034 BKN070 30/23 A2992 RMK AO2 T03000230
KDYA 191955Z AUTO 28004KT 10SM SCT026 SCT032 30/22 A2991 RMK AO2 T03000223
KDYA 191935Z AUTO 24003KT 10SM BKN026 31/23 A2991 RMK AO2 T03050225
KDYA 191915Z AUTO 11003KT 10SM SCT022 31/23 A2991 RMK AO2 T03050227
KDYA 191855Z AUTO 00000KT 10SM BKN022 29/22 A2993 RMK AO2 T02910222
KDYA 191835Z AUTO 00000KT 10SM SCT020 29/22 A2994 RMK AO2 T02940224
KDYA 191815Z AUTO 00000KT 10SM BKN018 29/22 A2994 RMK AO2 T02880223
KDYA 191755Z AUTO 34003KT 10SM BKN018 28/22 A2995 RMK AO2 T02840223 10286 20231
KDYA 191735Z AUTO 36005KT 10SM BKN016 28/23 A2996 RMK AO2 T02810225
KDYA 191715Z AUTO 35005KT 7SM BKN016 BKN050 27/22 A2996 RMK AO2 T02720224
KDYA 191655Z AUTO 01007KT 7SM BKN016 BKN050 28/22 A2997 RMK AO2 T02770224
KDYA 191635Z AUTO 35004KT 10SM OVC014 28/23 A2998 RMK AO2 T02750227
KDYA 191615Z AUTO 34007KT 10SM BKN009 OVC015 27/23 A2998 RMK AO2 T02660225
KDYA 191555Z AUTO 00000KT 7SM OVC009 26/22 A2997 RMK AO2 T02550224
KDYA 191535Z AUTO 00000KT 7SM OVC009 25/22 A2997 RMK AO2 T02520224
KDYA 191515Z AUTO 00000KT 5SM HZ OVC007 25/22 A2997 RMK AO2 T02500223
KDYA 191455Z AUTO 27004KT 7SM OVC005 25/22 A2997 RMK AO2 T02450222
KDYA 191435Z AUTO 25003KT 7SM OVC005 24/22 A2997 RMK AO2 T02400222
KDYA 191415Z AUTO 20003KT 5SM BR OVC005 24/22 A2997 RMK AO2 T02380221
KDYA 191355Z AUTO 19003KT 7SM OVC005 24/22 A2996 RMK AO2 T02380220
KDYA 191335Z AUTO 00000KT 7SM OVC005 24/22 A2997 RMK AO2 T02380221
KDYA 191315Z AUTO 26003KT 7SM OVC005 24/22 A2997 RMK AO2 T02370221
KDYA 191255Z AUTO 24004KT 7SM OVC003 24/22 A2996 RMK AO2 T02350220
KDYA 191235Z AUTO 22003KT 5SM BR OVC003 23/23 A2996 RMK AO2 T02330225
KDYA 191215Z AUTO 30003KT 5SM BR OVC003 23/23 A2996 RMK AO2 T02320229
KDYA 191155Z AUTO 25004KT 5SM BR OVC003 23/23 A2995 RMK AO2 T02310225 10238 20228
KDYA 191135Z AUTO 00000KT 5SM BR OVC003 23/23 A2995 RMK AO2 T02320225
KDYA 191115Z AUTO 25003KT 7SM OVC003 24/23 A2994 RMK AO2 T02350226
KDYA 191055Z AUTO 00000KT 5SM BR OVC003 24/23 A2994 RMK AO2 T02350226
KDYA 191035Z AUTO 00000KT 7SM OVC003 24/23 A2994 RMK AO2 T02350230
KDYA 191015Z AUTO 24003KT 5SM BR OVC003 23/23 A2994 RMK AO2 T02340232
KDYA 190955Z AUTO 27003KT 7SM OVC003 24/23 A2993 RMK AO2 T02350230
KDYA 190935Z AUTO 25003KT 7SM OVC003 24/23 A2993 RMK AO2 T02350233
KDYA 190915Z AUTO 00000KT 7SM OVC005 23/22 A2992 RMK AO2 T02300221
KDYA 190855Z AUTO 00000KT 7SM OVC005 23/22 A2991 RMK AO2 T02280218
KDYA 190835Z AUTO 00000KT 7SM OVC005 23/22 A2991 RMK AO2 T02300218
KDYA 190815Z AUTO 00000KT 7SM BKN007 23/22 A2991 RMK AO2 T02300217
KDYA 190755Z AUTO 00000KT 7SM SCT005 SCT008 23/22 A2990 RMK AO2 T02280216
KDYA 190735Z AUTO 00000KT 7SM BKN005 23/22 A2990 RMK AO2 T02300216
KDYA 190715Z AUTO 00000KT 7SM SCT005 23/22 A2990 RMK AO2 T02320217
KDYA 190655Z AUTO 00000KT 10SM CLR 24/22 A2991 RMK AO2 T02380220
KDYA 190635Z AUTO 26003KT 10SM CLR 23/22 A2991 RMK AO2 T02330219
KDYA 190615Z AUTO 00000KT 7SM CLR 24/22 A2990 RMK AO2 T02350217
KDYA 190555Z AUTO 00000KT 10SM CLR 24/22 A2990 RMK AO2 T02370218 10302 20235 403390221
KDYA 190515Z AUTO 00000KT 7SM CLR 24/22 A2991 RMK AO2 T02360215
KDYA 190455Z AUTO 00000KT 10SM CLR 24/22 A2991 RMK AO2 T02380215
KDYA 190435Z AUTO 00000KT 7SM CLR 24/22 A2991 RMK AO2 T02380220
KDYA 190415Z AUTO 00000KT 7SM CLR 24/22 A2992 RMK AO2 T02400218
KDYA 190355Z AUTO 00000KT 10SM -RA SCT043 SCT055 SCT070 24/22 A2993 RMK AO2 T02400216
KDYA 190335Z AUTO 00000KT 10SM SCT065 SCT095 SCT120 24/22 A2994 RMK AO2 T02400215
KDYA 190315Z AUTO 00000KT 10SM CLR 24/21 A2994 RMK AO2 T02410214
KDYA 190255Z AUTO 22003KT 10SM SCT120 24/22 A2996 RMK AO2 T02430215
KDYA 190235Z AUTO 24007KT 10SM BKN110 24/22 A2996 RMK AO2 T02430215
KDYA 190215Z AUTO 20008KT 10SM -RA SCT050 BKN085 OVC110 25/22 A2995 RMK AO2 T02500217
KDYA 190155Z AUTO 00000KT 10SM SCT038 BKN044 OVC060 26/22 A2996 RMK AO2 T02560220
KDYA 190135Z AUTO 14007KT 10SM SCT023 BKN044 OVC060 26/22 A2995 RMK AO2 T02550216
KDYA 190115Z AUTO 11007KT 10SM SCT025 BKN037 OVC060 27/21 A2995 RMK AO2 T02700213
KDYA 190055Z AUTO 14010G16KT 10SM -RA SCT039 SCT046 BKN060 27/22 A2994 RMK AO2 T02720216
KDYA 190035Z AUTO 16006G14KT 10SM SCT090 28/23 A2992 RMK AO2 T02820225
KDYA 190015Z AUTO 14003KT 10SM CLR 29/24 A2989 RMK AO2 T02940237
KDYA 182355Z AUTO 00000KT 10SM CLR 30/24 A2990 RMK AO2 T03030240 10339 20303
KDYA 182335Z AUTO 00000KT 10SM CLR 32/24 A2989 RMK AO2 T03150240
KDYA 182315Z AUTO 33003KT 10SM CLR 32/23 A2989 RMK AO2 T03240233
KDYA 182255Z AUTO 18003KT 10SM CLR 33/23 A2989 RMK AO2 T03300234
KDYA 182235Z AUTO 00000KT 10SM CLR 32/23 A2989 RMK AO2 T03200233
KDYA 182215Z AUTO 00000KT 10SM CLR 33/23 A2989 RMK AO2 T03270230
KDYA 182155Z AUTO 00000KT 10SM SCT036 34/23 A2989 RMK AO2 T03370229
KDYA 182135Z AUTO 02004KT 10SM BKN036 34/23 A2989 RMK AO2 T03360227
KDYA 182115Z AUTO 22003KT 10SM BKN038 34/23 A2988 RMK AO2 T03360228
KDYA 182055Z AUTO 00000KT 10SM CLR 33/22 A2989 RMK AO2 T03300218
KDYA 182035Z AUTO 29003KT 10SM SCT037 33/22 A2990 RMK AO2 T03290223
KDYA 182015Z AUTO 00000KT 10SM SCT037 33/22 A2991 RMK AO2 T03290223
KDYA 181955Z AUTO 33003KT 10SM CLR 33/23 A2992 RMK AO2 T03310227
KDYA 181935Z AUTO 32004KT 10SM CLR 33/23 A2993 RMK AO2 T03250227
KDYA 181915Z AUTO 34003KT 10SM SCT050 33/23 A2994 RMK AO2 T03250231
KDYA 181855Z AUTO 00000KT 10SM SCT038 SCT050 32/22 A2995 RMK AO2 T03210224
KDYA 181835Z AUTO 00000KT 10SM SCT080 32/23 A2995 RMK AO2 T03160227
KDYA 181815Z AUTO 00000KT 10SM SCT080 32/23 A2996 RMK AO2 T03190226
KDYA 181755Z AUTO 31003KT 7SM SCT042 SCT060 31/23 A2997 RMK AO2 T03100228 10320 20230
KDYA 181735Z AUTO 00000KT 10SM SCT028 SCT044 32/23 A2997 RMK AO2 T03180226
KDYA 181715Z AUTO 33003KT 10SM SCT026 SCT040 32/23 A2998 RMK AO2 T03150232
KDYA 181655Z AUTO 00000KT 10SM SCT026 SCT040 31/23 A2998 RMK AO2 T03090227
KDYA 181635Z AUTO 00000KT 10SM SCT022 30/23 A2999 RMK AO2 T02990231
KDYA 181615Z AUTO 24003KT 7SM CLR 30/23 A2999 RMK AO2 T03000232
KDYA 181555Z AUTO 03003KT 7SM CLR 30/23 A3000 RMK AO2 T02950231
KDYA 181535Z AUTO 33003KT 10SM CLR 29/23 A3000 RMK AO2 T02910229
KDYA 181515Z AUTO 00000KT 10SM SCT016 29/23 A3000 RMK AO2 T02860228
KDYA 181455Z AUTO 27003KT 10SM SCT016 28/23 A3000 RMK AO2 T02840229
KDYA 181435Z AUTO 00000KT 10SM CLR 27/23 A3001 RMK AO2 T02740226
KDYA 181415Z AUTO 00000KT 7SM SCT050 27/22 A3000 RMK AO2 T02690224
KDYA 181355Z AUTO 00000KT 7SM SCT050 26/22 A3001 RMK AO2 T02640222
KDYA 181335Z AUTO 00000KT 7SM SCT014 26/22 A3001 RMK AO2 T02550221
KDYA 181315Z AUTO 00000KT 10SM SCT014 25/22 A3001 RMK AO2 T02460218
KDYA 181255Z AUTO 00000KT 7SM CLR 24/22 A3000 RMK AO2 T02350215
KDYA 181235Z AUTO 00000KT 7SM SCT018 SCT027 24/22 A3001 RMK AO2 T02350216
KDYA 181215Z AUTO 00000KT 7SM BKN019 OVC025 23/22 A3001 RMK AO2 T02320215
KDYA 181155Z AUTO 00000KT 7SM OVC019 23/21 A3001 RMK AO2 T02300213 10233 20221
KDYA 181135Z AUTO 00000KT 7SM BKN019 BKN065 23/21 A3001 RMK AO2 T02260211
KDYA 181115Z AUTO 00000KT 7SM SCT065 SCT110 23/21 A3000 RMK AO2 T02260211
KDYA 181055Z AUTO 00000KT 7SM BKN110 22/21 A3000 RMK AO2 T02240210
KDYA 181035Z AUTO 00000KT 10SM SCT029 OVC110 23/21 A3000 RMK AO2 T02250211
KDYA 181015Z AUTO 00000KT 10SM SCT031 BKN110 22/21 A2999 RMK AO2 T02220210
KDYA 180955Z AUTO 00000KT 10SM SCT110 22/21 A2998 RMK AO2 T02220210
KDYA 180935Z AUTO 00000KT 7SM SCT100 22/21 A2998 RMK AO2 T02220211
KDYA 180915Z AUTO 00000KT 7SM SCT110 22/21 A2998 RMK AO2 T02210210
KDYA 180855Z AUTO 00000KT 7SM SCT110 22/21 A2998 RMK AO2 T02220210